This is the latest recevied weather packets stored in our database for station/object LRBS. If no packets are shown the sender has not sent any weather packets the latest 10 day(s).
| Time | Temp. | Humidity | Pressure | Rain* | Wind** | Luminosity | Snow |
|---|---|---|---|---|---|---|---|
| 1778122094 | 8.89° C | 87% | 1015 hPa | - | - | - | - |
| 1778121194 | 8.89° C | 87% | 1015 hPa | - | - | - | - |
| 1778120294 | 10° C | 82% | 1015 hPa | - | - | - | - |
| 1778119394 | 10° C | 82% | 1015 hPa | - | - | - | - |
| 1778118494 | 8.89° C | 82% | 1015 hPa | - | - | - | - |
| 1778117594 | 8.89° C | 82% | 1015 hPa | - | - | - | - |
| 1778116694 | 10° C | 82% | 1015 hPa | - | - | - | - |
| 1778115795 | 10° C | 82% | 1015 hPa | - | - | - | - |
| 1778114894 | 10° C | 82% | 1015 hPa | - | - | - | - |
| 1778113995 | 10° C | 82% | 1015 hPa | - | - | - | - |
| 1778113094 | 10° C | 82% | 1015 hPa | - | - | - | - |
| 1778112194 | 10° C | 82% | 1015 hPa | - | - | - | - |
| 1778111294 | 11.11° C | 77% | 1015 hPa | - | - | - | - |
| 1778110394 | 11.11° C | 77% | 1015 hPa | - | - | - | - |
| 1778109495 | 12.78° C | 63% | 1015 hPa | - | - | - | - |
| 1778108594 | 12.78° C | 63% | 1015 hPa | - | - | - | - |
| 1778107694 | 12.78° C | 63% | 1015 hPa | - | - | - | - |
| 1778106794 | 12.78° C | 63% | 1015 hPa | - | - | - | - |
| 1778105894 | 13.89° C | 59% | 1015 hPa | - | - | - | - |
| 1778104993 | 13.89° C | 59% | 1015 hPa | - | - | - | - |
| 1778104110 | 16.11° C | 48% | 1015 hPa | - | - | - | - |
| 1778103194 | 16.11° C | 48% | 1015 hPa | - | - | - | - |
| 1778102294 | 17.22° C | 49% | 1015 hPa | - | - | - | - |
| 1778101394 | 17.22° C | 49% | 1015 hPa | - | - | - | - |
| 1778100495 | 17.22° C | 56% | 1015 hPa | - | - | - | - |
* Rain since midnight (hover to see other rain measurements)
** Current wind speed in m/s (hover to see current wind gust speed)